This is the latest recevied weather packets stored in our database for station/object OM3WYM-13. If no packets are shown the sender has not sent any weather packets the latest 10 day(s).
| Time | Temp. | Humidity | Pressure | Rain* | Wind** | Luminosity | Snow |
|---|---|---|---|---|---|---|---|
| 1777906208 | 28.33° C | 17% | 1013.7 hPa | - | - | - | - |
| 1777905608 | 28.33° C | 18% | 1013.8 hPa | - | - | - | - |
| 1777905008 | 29.44° C | 17% | 1013.8 hPa | - | - | - | - |
| 1777904408 | 29.44° C | 18% | 1013.9 hPa | - | - | - | - |
| 1777903808 | 29.44° C | 17% | 1013.9 hPa | - | - | - | - |
| 1777903209 | 28.89° C | 18% | 1014.1 hPa | - | - | - | - |
| 1777902608 | 29.44° C | 18% | 1014.1 hPa | - | - | - | - |
| 1777902008 | 29.44° C | 19% | 1014.2 hPa | - | - | - | - |
| 1777901408 | 29.44° C | 18% | 1014.3 hPa | - | - | - | - |
| 1777900809 | 28.89° C | 19% | 1014.4 hPa | - | - | - | - |
| 1777900208 | 28.89° C | 19% | 1014.6 hPa | - | - | - | - |
| 1777899608 | 27.78° C | 20% | 1014.8 hPa | - | - | - | - |
| 1777899008 | 27.22° C | 21% | 1014.9 hPa | - | - | - | - |
| 1777898408 | 26.67° C | 21% | 1015.1 hPa | - | - | - | - |
| 1777897808 | 27.22° C | 20% | 1015.1 hPa | - | - | - | - |
| 1777897208 | 25.56° C | 21% | 1015.4 hPa | - | - | - | - |
| 1777896608 | 25° C | 22% | 1015.5 hPa | - | - | - | - |
| 1777896008 | 25° C | 23% | 1015.6 hPa | - | - | - | - |
| 1777895409 | 25° C | 23% | 1015.8 hPa | - | - | - | - |
| 1777894809 | 24.44° C | 23% | 1015.9 hPa | - | - | - | - |
| 1777894208 | 23.89° C | 24% | 1016 hPa | - | - | - | - |
| 1777893608 | 23.33° C | 25% | 1016.2 hPa | - | - | - | - |
| 1777893008 | 22.78° C | 25% | 1016.4 hPa | - | - | - | - |
| 1777892408 | 22.78° C | 24% | 1016.5 hPa | - | - | - | - |
| 1777891808 | 22.22° C | 24% | 1016.6 hPa | - | - | - | - |
* Rain since midnight (hover to see other rain measurements)
** Current wind speed in m/s (hover to see current wind gust speed)